Time;durP1;ratioP1;P1;durP2;ratioP2;P2;SDS_P1;SDS_P2;PMS_P1;PMS_P2;Temp;Humidity;BMP_temperature;BMP_pressure;BME280_temperature;BME280_humidity;BME280_pressure;Samples;Min_cycle;Max_cycle;Signal;HPM_P1;HPM_P2
2021/12/27 00:00:34;;;;;;;2.30;2.20;;;7.80;99.90;;;;;;5030415;28;20216;-76
2021/12/27 00:03:02;;;;;;;2.40;2.20;;;7.80;99.90;;;;;;5030169;28;20189;-76
2021/12/27 00:05:29;;;;;;;1.80;1.70;;;7.80;99.90;;;;;;4996308;28;20431;-76
2021/12/27 00:07:54;;;;;;;3.00;2.40;;;7.80;99.90;;;;;;5028615;28;20459;-76
2021/12/27 00:10:22;;;;;;;1.60;1.50;;;7.90;99.90;;;;;;5030167;28;20427;-74
2021/12/27 00:12:49;;;;;;;2.00;1.80;;;7.80;99.90;;;;;;5030124;28;20187;-75
2021/12/27 00:15:16;;;;;;;1.67;1.57;;;7.80;99.90;;;;;;5030197;28;20984;-74
2021/12/27 00:17:43;;;;;;;1.97;1.53;;;7.80;99.90;;;;;;5030029;28;21241;-76
2021/12/27 00:20:12;;;;;;;2.17;1.40;;;7.80;99.90;;;;;;5029873;28;20909;-75
2021/12/27 00:22:38;;;;;;;1.47;1.37;;;7.70;99.90;;;;;;5029963;28;20419;-75
2021/12/27 00:25:05;;;;;;;1.10;1.00;;;7.80;99.90;;;;;;5029909;28;20416;-76
2021/12/27 00:27:31;;;;;;;1.70;1.60;;;7.80;99.90;;;;;;5029783;28;20435;-76
2021/12/27 00:29:56;;;;;;;1.40;1.30;;;7.80;99.90;;;;;;5028066;28;20422;-76
2021/12/27 00:32:22;;;;;;;2.67;1.40;;;7.80;99.90;;;;;;5029519;28;20207;-76
2021/12/27 00:34:48;;;;;;;1.50;1.40;;;7.80;99.90;;;;;;5029567;28;20192;-76
2021/12/27 00:37:13;;;;;;;2.37;2.17;;;7.90;99.90;;;;;;5027721;28;20192;-76
2021/12/27 00:39:39;;;;;;;2.87;2.47;;;7.80;99.90;;;;;;5029687;28;20222;-76
2021/12/27 00:42:05;;;;;;;2.03;1.83;;;7.80;99.90;;;;;;5029304;28;20226;-76
2021/12/27 00:44:32;;;;;;;4.13;3.73;;;7.80;99.90;;;;;;5027803;28;20645;-76
2021/12/27 00:46:58;;;;;;;2.33;2.13;;;7.90;99.90;;;;;;5028792;28;20904;-76
2021/12/27 00:49:24;;;;;;;2.20;2.00;;;7.90;99.90;;;;;;5027650;28;20447;-76
2021/12/27 00:51:50;;;;;;;2.00;1.60;;;7.90;99.90;;;;;;5028956;28;20455;-77
2021/12/27 00:54:16;;;;;;;1.63;1.53;;;7.90;99.90;;;;;;5029051;28;20820;-77
2021/12/27 00:56:43;;;;;;;1.60;1.50;;;7.90;99.90;;;;;;5029024;28;20775;-76
2021/12/27 00:59:09;;;;;;;1.63;1.53;;;8.00;99.90;;;;;;5027213;28;20546;-77
2021/12/27 01:01:34;;;;;;;2.10;1.90;;;8.00;99.90;;;;;;5028954;28;20578;-76
2021/12/27 01:04:00;;;;;;;1.40;1.30;;;7.90;99.90;;;;;;5028970;28;20431;-77
2021/12/27 01:06:26;;;;;;;1.73;1.63;;;7.90;99.90;;;;;;5028873;28;20200;-75
2021/12/27 01:08:53;;;;;;;1.33;1.23;;;8.00;99.90;;;;;;5028594;28;20196;-75
2021/12/27 01:11:35;;;;;;;1.53;1.10;;;8.00;99.90;;;;;;5028767;28;20497;-76
2021/12/27 01:14:14;;;;;;;0.83;0.83;;;8.10;99.90;;;;;;5028709;28;20428;-76
2021/12/27 01:16:42;;;;;;;1.30;1.20;;;8.10;99.90;;;;;;5028805;28;20427;-77
2021/12/27 01:19:08;;;;;;;1.20;1.10;;;8.00;99.90;;;;;;5028548;28;20501;-77
2021/12/27 01:21:34;;;;;;;1.30;1.20;;;8.10;99.90;;;;;;5027007;28;20463;-76
2021/12/27 01:24:00;;;;;;;1.00;1.00;;;8.00;99.90;;;;;;5028537;28;20477;-76
2021/12/27 01:26:26;;;;;;;0.80;0.80;;;8.00;99.90;;;;;;5028558;28;20514;-76
2021/12/27 01:28:56;;;;;;;0.90;0.90;;;8.00;99.90;;;;;;5028611;28;20437;-76
2021/12/27 01:31:22;;;;;;;1.37;1.00;;;8.00;99.90;;;;;;5028371;28;20857;-76
2021/12/27 01:33:48;;;;;;;0.87;0.87;;;8.00;99.90;;;;;;5028754;28;20419;-77
2021/12/27 01:36:14;;;;;;;0.70;0.70;;;7.90;99.90;;;;;;5028897;28;20441;-77
2021/12/27 01:38:41;;;;;;;1.53;0.70;;;7.90;99.90;;;;;;5028516;28;20250;-76
2021/12/27 01:41:07;;;;;;;0.93;0.83;;;7.90;99.90;;;;;;5026759;28;20686;-77
2021/12/27 01:43:35;;;;;;;0.80;0.80;;;8.10;99.90;;;;;;5028741;28;20834;-76
2021/12/27 01:46:05;;;;;;;1.10;1.03;;;7.90;99.90;;;;;;5028330;28;20419;-74
2021/12/27 01:48:37;;;;;;;1.43;1.20;;;7.80;99.90;;;;;;5028247;28;20431;-75
2021/12/27 01:51:06;;;;;;;1.00;1.00;;;7.70;99.90;;;;;;5026711;28;20454;-75
2021/12/27 01:53:33;;;;;;;1.23;1.13;;;7.60;99.90;;;;;;5028209;28;20896;-76
2021/12/27 01:55:59;;;;;;;0.80;0.70;;;7.60;99.90;;;;;;5028189;28;20427;-76
2021/12/27 01:58:26;;;;;;;1.03;0.97;;;7.60;99.90;;;;;;5029393;28;20915;-76
2021/12/27 02:00:57;;;;;;;2.93;1.47;;;7.60;99.90;;;;;;5030851;28;20470;-76
2021/12/27 02:03:26;;;;;;;1.13;1.03;;;7.60;99.90;;;;;;5030796;28;21002;-76
2021/12/27 02:05:53;;;;;;;0.80;0.80;;;7.40;99.90;;;;;;5032345;28;20466;-76
2021/12/27 02:08:19;;;;;;;1.10;0.97;;;7.50;99.90;;;;;;5032174;28;20983;-76
2021/12/27 02:10:44;;;;;;;2.90;0.97;;;7.40;99.90;;;;;;5032250;28;20429;-77
2021/12/27 02:13:11;;;;;;;1.37;1.27;;;7.40;99.90;;;;;;5032338;28;20419;-77
2021/12/27 02:15:37;;;;;;;0.80;0.80;;;7.40;99.90;;;;;;5031991;28;20212;-77
2021/12/27 02:18:04;;;;;;;1.53;1.03;;;7.40;99.90;;;;;;5013973;28;20451;-78
2021/12/27 02:20:33;;;;;;;1.10;0.90;;;7.40;99.90;;;;;;5030521;28;20571;-77
2021/12/27 02:23:02;;;;;;;0.90;0.70;;;7.30;99.90;;;;;;5031886;28;20439;-77
2021/12/27 02:25:30;;;;;;;1.17;0.80;;;7.30;99.90;;;;;;5030631;28;21003;-76
2021/12/27 02:27:57;;;;;;;1.20;1.07;;;7.30;99.90;;;;;;5030447;28;20533;-77
2021/12/27 02:30:23;;;;;;;0.80;0.80;;;7.40;99.90;;;;;;5031830;28;20415;-78
2021/12/27 02:33:00;;;;;;;1.03;0.93;;;7.40;99.90;;;;;;5031997;28;20423;-78
2021/12/27 02:35:33;;;;;;;0.80;0.80;;;7.40;99.90;;;;;;5031890;28;20469;-77
2021/12/27 02:38:00;;;;;;;1.23;1.13;;;7.40;99.90;;;;;;5030650;28;20447;-77
2021/12/27 02:40:27;;;;;;;1.40;1.30;;;7.30;99.90;;;;;;5032052;28;20455;-77
2021/12/27 02:43:11;;;;;;;1.70;1.60;;;7.30;99.90;;;;;;5030801;28;20423;-77
2021/12/27 02:45:41;;;;;;;1.67;1.57;;;7.30;99.90;;;;;;5030740;28;20924;-75
2021/12/27 02:48:07;;;;;;;1.40;1.30;;;7.20;99.90;;;;;;5032307;28;20454;-74
2021/12/27 02:50:35;;;;;;;2.00;1.90;;;7.20;99.90;;;;;;5031743;28;20501;-75
2021/12/27 02:53:02;;;;;;;2.13;2.00;;;7.10;99.90;;;;;;5030915;28;20825;-75
2021/12/27 02:55:29;;;;;;;1.93;1.83;;;7.10;99.90;;;;;;5030736;28;20905;-76
2021/12/27 02:57:55;;;;;;;2.10;1.90;;;7.10;99.90;;;;;;5030589;28;20448;-76
2021/12/27 03:00:24;;;;;;;2.30;2.10;;;7.00;99.90;;;;;;5030909;28;20931;-77
2021/12/27 03:02:51;;;;;;;1.90;1.80;;;7.00;99.90;;;;;;5028787;28;20431;-76
2021/12/27 03:05:18;;;;;;;2.00;1.90;;;7.10;99.90;;;;;;5030521;28;20430;-76
2021/12/27 03:07:46;;;;;;;4.00;2.47;;;7.00;99.90;;;;;;5030816;28;20447;-77
2021/12/27 03:10:13;;;;;;;5.40;1.70;;;7.10;99.90;;;;;;5028687;28;20442;-77
2021/12/27 03:12:39;;;;;;;2.40;1.83;;;7.10;99.90;;;;;;5030561;28;20426;-77
2021/12/27 03:15:07;;;;;;;1.87;1.77;;;7.10;99.90;;;;;;5029059;28;20424;-77
2021/12/27 03:17:35;;;;;;;1.80;1.70;;;7.10;99.90;;;;;;5030387;28;20231;-76
2021/12/27 03:20:05;;;;;;;4.27;1.97;;;7.00;99.90;;;;;;5029145;28;20991;-76
2021/12/27 03:22:31;;;;;;;1.60;1.50;;;7.00;99.90;;;;;;5030225;28;20975;-77
2021/12/27 03:24:57;;;;;;;1.87;1.77;;;7.00;99.90;;;;;;5028779;28;20434;-76
2021/12/27 03:27:23;;;;;;;2.23;1.97;;;7.00;99.90;;;;;;5028685;28;20431;-76
2021/12/27 03:29:49;;;;;;;1.93;1.60;;;7.10;99.90;;;;;;5028901;28;20231;-76
2021/12/27 03:32:17;;;;;;;1.40;1.30;;;7.10;99.90;;;;;;5030211;28;20447;-77
2021/12/27 03:34:53;;;;;;;1.70;1.60;;;7.10;99.90;;;;;;5030073;28;20521;-76
2021/12/27 03:37:20;;;;;;;1.60;1.50;;;7.10;99.90;;;;;;5030041;28;20425;-77
2021/12/27 03:39:45;;;;;;;2.00;1.70;;;7.10;99.90;;;;;;5029740;28;20430;-77
2021/12/27 03:42:11;;;;;;;1.93;1.83;;;7.10;99.90;;;;;;5028278;28;20483;-76
2021/12/27 03:44:37;;;;;;;1.80;1.70;;;7.10;99.90;;;;;;5029685;28;20236;-77
2021/12/27 03:47:03;;;;;;;1.70;1.60;;;7.10;99.90;;;;;;5029947;28;20681;-76
2021/12/27 03:49:29;;;;;;;1.70;1.60;;;7.00;99.90;;;;;;5029559;28;20598;-79
2021/12/27 03:51:55;;;;;;;7.90;2.00;;;7.00;99.90;;;;;;4992329;28;1097087;-78
2021/12/27 03:54:20;;;;;;;1.70;1.60;;;7.10;99.90;;;;;;5030379;28;20555;-77
2021/12/27 03:56:46;;;;;;;1.50;1.40;;;7.00;99.90;;;;;;5012475;28;20211;-77
2021/12/27 03:59:24;;;;;;;1.50;1.40;;;7.10;99.90;;;;;;5029018;28;20231;-78
2021/12/27 04:01:50;;;;;;;2.77;1.83;;;7.10;99.90;;;;;;5030248;28;20212;-77
2021/12/27 04:04:16;;;;;;;2.20;1.90;;;7.00;99.90;;;;;;5030233;28;20416;-77
2021/12/27 04:06:42;;;;;;;1.60;1.50;;;7.00;99.90;;;;;;5030306;28;20538;-77
2021/12/27 04:09:08;;;;;;;1.63;1.50;;;7.10;99.90;;;;;;5030060;28;20637;-76
2021/12/27 04:11:33;;;;;;;2.00;1.47;;;7.10;99.90;;;;;;5030010;28;20446;-77
2021/12/27 04:14:02;;;;;;;1.40;1.30;;;7.10;99.90;;;;;;5030760;28;20173;-77
2021/12/27 04:16:28;;;;;;;2.70;1.40;;;7.10;99.90;;;;;;5030123;28;20187;-76
2021/12/27 04:18:54;;;;;;;1.90;1.80;;;7.00;99.90;;;;;;5029773;28;20504;-76
2021/12/27 04:21:19;;;;;;;1.57;1.47;;;7.10;99.90;;;;;;5029182;28;20952;-76
2021/12/27 04:23:45;;;;;;;2.07;1.87;;;7.10;99.90;;;;;;5029960;28;20198;-76
2021/12/27 04:26:11;;;;;;;1.70;1.60;;;7.10;99.90;;;;;;5030544;28;20242;-76
2021/12/27 04:28:36;;;;;;;2.40;1.90;;;7.00;99.90;;;;;;5029712;28;20613;-75
2021/12/27 04:31:02;;;;;;;3.00;2.07;;;7.10;99.90;;;;;;5029823;28;20192;-75
2021/12/27 04:33:28;;;;;;;2.03;1.93;;;7.10;99.90;;;;;;5029799;28;20302;-75
2021/12/27 04:35:54;;;;;;;1.70;1.60;;;7.10;99.90;;;;;;5029738;28;20196;-75
2021/12/27 04:38:20;;;;;;;2.00;1.90;;;7.10;99.90;;;;;;5029601;28;20212;-74
2021/12/27 04:40:47;;;;;;;2.07;1.90;;;7.00;99.90;;;;;;5029463;28;20208;-73
2021/12/27 04:43:18;;;;;;;1.83;1.73;;;7.10;99.90;;;;;;5029537;28;20419;-74
2021/12/27 04:45:44;;;;;;;1.97;1.87;;;7.10;99.90;;;;;;5029550;28;20418;-74
2021/12/27 04:48:10;;;;;;;1.40;1.30;;;7.00;99.90;;;;;;5029487;28;20438;-74
2021/12/27 04:50:36;;;;;;;1.60;1.50;;;7.10;99.90;;;;;;5029382;28;20526;-75
2021/12/27 04:53:03;;;;;;;1.90;1.60;;;7.00;99.90;;;;;;5027856;28;20470;-74
2021/12/27 04:55:30;;;;;;;1.53;1.43;;;7.00;99.90;;;;;;5028089;28;20230;-75
2021/12/27 04:57:56;;;;;;;2.50;1.80;;;7.10;99.90;;;;;;5029196;28;20951;-75
2021/12/27 05:00:21;;;;;;;1.90;1.80;;;6.90;99.90;;;;;;5029501;28;20415;-75
2021/12/27 05:02:48;;;;;;;1.67;1.57;;;7.00;99.90;;;;;;5011458;28;20192;-76
2021/12/27 05:05:14;;;;;;;2.03;1.93;;;6.90;99.90;;;;;;5029517;28;20427;-74
2021/12/27 05:07:40;;;;;;;1.60;1.50;;;6.90;99.90;;;;;;5029239;28;20440;-74
2021/12/27 05:10:06;;;;;;;2.30;2.13;;;7.00;99.90;;;;;;5029459;28;20422;-74
2021/12/27 05:12:32;;;;;;;2.10;1.93;;;6.90;99.90;;;;;;5029355;28;20423;-74
2021/12/27 05:14:58;;;;;;;2.20;2.10;;;6.90;99.90;;;;;;5029225;28;20786;-74
2021/12/27 05:17:23;;;;;;;1.80;1.70;;;7.00;99.90;;;;;;5029164;28;20280;-74
2021/12/27 05:19:49;;;;;;;2.23;2.13;;;7.00;99.90;;;;;;5029278;28;20195;-74
2021/12/27 05:22:15;;;;;;;2.20;2.00;;;7.00;99.90;;;;;;5028939;28;20267;-74
2021/12/27 05:24:40;;;;;;;3.20;2.90;;;6.90;99.90;;;;;;5027470;28;20184;-74
2021/12/27 05:27:08;;;;;;;3.27;2.47;;;7.00;99.90;;;;;;5027622;28;20177;-74
2021/12/27 05:29:34;;;;;;;2.73;2.57;;;7.00;99.90;;;;;;5028965;28;20304;-74
2021/12/27 05:32:01;;;;;;;4.20;3.00;;;6.90;99.90;;;;;;5027206;28;20439;-74
2021/12/27 05:34:28;;;;;;;4.00;3.60;;;6.90;99.90;;;;;;5029125;28;20902;-74
2021/12/27 05:36:54;;;;;;;3.97;3.63;;;6.90;99.90;;;;;;5028926;28;20423;-74
2021/12/27 05:39:21;;;;;;;2.80;2.60;;;6.90;99.90;;;;;;5028834;28;20529;-74
2021/12/27 05:41:48;;;;;;;4.17;2.97;;;6.90;99.90;;;;;;5028653;28;20478;-74
2021/12/27 05:44:15;;;;;;;3.60;3.30;;;6.90;99.90;;;;;;5028730;28;20446;-74
2021/12/27 05:46:41;;;;;;;2.93;2.60;;;6.90;99.90;;;;;;5028775;28;20407;-75
2021/12/27 05:49:07;;;;;;;4.20;3.80;;;6.90;99.90;;;;;;5029538;28;20454;-74
2021/12/27 05:51:32;;;;;;;3.00;2.80;;;6.90;99.90;;;;;;5028538;28;20882;-74
2021/12/27 05:53:58;;;;;;;3.47;3.17;;;7.00;99.90;;;;;;5027348;28;20538;-77
2021/12/27 05:56:24;;;;;;;2.83;2.53;;;6.90;99.90;;;;;;5027292;28;20195;-77
2021/12/27 05:58:50;;;;;;;3.57;3.27;;;6.90;99.90;;;;;;5028476;28;20306;-76
2021/12/27 06:01:15;;;;;;;4.43;3.00;;;6.90;99.90;;;;;;5028530;28;20472;-77
2021/12/27 06:03:41;;;;;;;3.13;2.30;;;7.00;99.90;;;;;;5027060;28;20185;-76
2021/12/27 06:06:07;;;;;;;2.50;2.30;;;7.10;99.90;;;;;;5028626;28;20189;-76
2021/12/27 06:08:33;;;;;;;3.30;2.83;;;7.00;99.90;;;;;;5010486;28;20205;-76
2021/12/27 06:10:59;;;;;;;3.30;2.60;;;6.90;99.90;;;;;;5028541;28;20268;-76
2021/12/27 06:13:24;;;;;;;3.07;2.43;;;6.90;99.90;;;;;;5026927;28;20613;-77
2021/12/27 06:15:50;;;;;;;4.87;2.43;;;6.80;99.90;;;;;;5010574;28;20709;-77
2021/12/27 06:18:16;;;;;;;2.90;2.70;;;6.90;99.90;;;;;;5027420;28;20219;-77
2021/12/27 06:20:42;;;;;;;3.23;2.80;;;6.80;99.90;;;;;;5028572;28;20218;-77
2021/12/27 06:23:07;;;;;;;5.63;2.83;;;6.80;99.90;;;;;;5028765;28;20172;-78
2021/12/27 06:25:33;;;;;;;3.07;2.77;;;6.70;99.90;;;;;;5029603;28;20203;-77
2021/12/27 06:27:59;;;;;;;3.97;3.57;;;6.70;99.90;;;;;;5028050;28;20199;-76
2021/12/27 06:30:24;;;;;;;3.23;2.53;;;6.60;99.90;;;;;;5028415;28;20227;-76
2021/12/27 06:32:50;;;;;;;3.63;2.90;;;6.60;99.90;;;;;;5028518;28;20258;-76
2021/12/27 06:35:17;;;;;;;4.53;3.17;;;6.70;99.90;;;;;;5027064;28;20241;-77
2021/12/27 06:37:44;;;;;;;4.30;3.37;;;6.50;99.90;;;;;;5028855;28;20716;-77
2021/12/27 06:40:11;;;;;;;4.20;3.80;;;6.40;99.90;;;;;;5028446;28;20432;-75
2021/12/27 06:42:37;;;;;;;3.23;3.03;;;6.50;99.90;;;;;;5028366;28;20553;-76
2021/12/27 06:45:03;;;;;;;3.80;3.23;;;6.50;99.90;;;;;;5030020;28;20847;-76
2021/12/27 06:47:29;;;;;;;4.27;3.10;;;6.40;99.90;;;;;;5031838;28;20739;-76
2021/12/27 06:49:55;;;;;;;5.13;3.27;;;6.40;99.90;;;;;;5031664;28;20455;-76
2021/12/27 06:52:21;;;;;;;4.47;3.60;;;6.40;99.90;;;;;;5031617;28;20262;-76
2021/12/27 06:54:47;;;;;;;3.67;3.33;;;6.30;99.90;;;;;;5031562;28;20566;-76
2021/12/27 06:57:13;;;;;;;4.20;3.73;;;6.30;99.90;;;;;;5031911;28;20665;-75
2021/12/27 06:59:39;;;;;;;4.37;3.03;;;6.30;99.90;;;;;;5031865;28;20422;-75
2021/12/27 07:02:05;;;;;;;3.80;3.30;;;6.30;99.90;;;;;;5032164;28;20940;-76
2021/12/27 07:04:31;;;;;;;3.50;3.20;;;6.20;99.90;;;;;;5032296;28;20435;-76
2021/12/27 07:06:57;;;;;;;3.67;3.37;;;6.30;99.90;;;;;;5014533;28;20592;-76
2021/12/27 07:09:23;;;;;;;3.20;2.90;;;6.30;99.90;;;;;;5032156;28;20716;-75
2021/12/27 07:11:49;;;;;;;4.53;3.90;;;6.30;99.90;;;;;;5031144;28;20802;-77
2021/12/27 07:14:15;;;;;;;3.10;2.90;;;6.30;99.90;;;;;;5031261;28;20430;-77
2021/12/27 07:16:40;;;;;;;4.07;3.33;;;6.30;99.90;;;;;;5030953;28;20180;-77
2021/12/27 07:19:06;;;;;;;3.90;3.20;;;6.30;99.90;;;;;;5031793;28;20206;-76
2021/12/27 07:21:32;;;;;;;3.53;3.20;;;6.30;99.90;;;;;;5030859;28;20682;-76
2021/12/27 07:23:57;;;;;;;3.53;3.23;;;6.30;99.90;;;;;;5031236;28;20181;-76
2021/12/27 07:26:23;;;;;;;4.47;3.03;;;6.20;99.90;;;;;;5032787;28;20180;-77
2021/12/27 07:28:49;;;;;;;6.10;3.60;;;6.30;99.90;;;;;;5032413;28;20584;-76
2021/12/27 07:31:14;;;;;;;3.43;3.03;;;6.30;99.90;;;;;;5031329;28;20184;-76
2021/12/27 07:33:40;;;;;;;4.60;3.67;;;6.30;99.90;;;;;;5032397;28;20640;-76
2021/12/27 07:36:08;;;;;;;3.23;2.93;;;6.40;99.90;;;;;;5031407;28;20184;-76
2021/12/27 07:38:35;;;;;;;3.80;3.37;;;6.30;99.90;;;;;;5037372;28;20205;-77
2021/12/27 07:41:01;;;;;;;3.90;3.17;;;6.30;99.90;;;;;;5031949;28;21090;-76
2021/12/27 07:43:26;;;;;;;4.20;3.40;;;6.30;99.90;;;;;;5030864;28;20423;-76
2021/12/27 07:45:52;;;;;;;4.37;3.97;;;6.30;99.90;;;;;;5031669;28;20923;-76
2021/12/27 07:48:18;;;;;;;5.13;3.90;;;6.30;99.90;;;;;;5030462;28;20259;-76
2021/12/27 07:50:43;;;;;;;3.80;3.40;;;6.30;99.90;;;;;;5031873;28;20287;-77
2021/12/27 07:53:09;;;;;;;3.50;3.20;;;6.40;99.90;;;;;;5031810;28;20185;-76
2021/12/27 07:55:37;;;;;;;3.60;3.30;;;6.40;99.90;;;;;;5031037;28;20276;-76
2021/12/27 07:58:03;;;;;;;4.00;3.60;;;6.40;99.90;;;;;;5032532;28;20208;-76
2021/12/27 08:00:29;;;;;;;3.40;3.10;;;6.50;99.90;;;;;;5035974;28;20428;-76
2021/12/27 08:02:55;;;;;;;4.50;3.90;;;6.50;99.90;;;;;;5031794;28;21260;-75
2021/12/27 08:05:21;;;;;;;4.10;3.60;;;6.50;99.90;;;;;;5030039;28;20183;-75
2021/12/27 08:07:47;;;;;;;4.13;3.73;;;6.60;99.90;;;;;;5031314;28;20437;-77
2021/12/27 08:10:14;;;;;;;5.70;4.30;;;6.70;99.90;;;;;;5031121;28;20419;-76
2021/12/27 08:12:41;;;;;;;4.90;4.10;;;6.70;99.90;;;;;;5031431;28;20192;-76
2021/12/27 08:15:08;;;;;;;6.60;4.27;;;6.80;99.90;;;;;;5031475;28;20423;-77
2021/12/27 08:17:34;;;;;;;7.67;6.80;;;6.80;99.90;;;;;;5031415;28;20479;-77
2021/12/27 08:20:00;;;;;;;11.80;9.00;;;6.90;99.90;;;;;;5031414;28;20441;-78
2021/12/27 08:22:28;;;;;;;8.50;6.43;;;7.10;99.90;;;;;;5031325;28;20495;-77
2021/12/27 08:24:55;;;;;;;3.93;3.30;;;8.10;99.90;;;;;;5030942;28;20188;-76
2021/12/27 08:27:23;;;;;;;4.90;3.83;;;8.80;99.90;;;;;;5031050;28;20411;-77
2021/12/27 08:29:49;;;;;;;3.10;2.90;;;9.60;99.90;;;;;;5031094;28;20510;-76
2021/12/27 08:32:14;;;;;;;3.13;2.90;;;10.30;99.90;;;;;;5030916;28;20534;-77
2021/12/27 08:34:40;;;;;;;3.60;2.63;;;11.00;99.90;;;;;;5029849;28;20356;-77
2021/12/27 08:37:06;;;;;;;5.00;3.57;;;11.80;99.90;;;;;;5030143;28;20425;-77
2021/12/27 08:39:34;;;;;;;5.70;4.60;;;11.80;99.90;;;;;;5031629;28;20205;-77
2021/12/27 08:42:01;;;;;;;7.67;6.47;;;13.00;99.90;;;;;;5031008;28;20210;-77
2021/12/27 08:44:27;;;;;;;11.57;7.83;;;13.90;99.90;;;;;;5031731;28;20415;-77
2021/12/27 08:46:53;;;;;;;8.63;6.47;;;13.70;99.90;;;;;;5031799;28;20477;-77
2021/12/27 08:49:19;;;;;;;7.57;6.00;;;14.20;99.90;;;;;;5031491;28;20255;-77
2021/12/27 08:51:45;;;;;;;16.17;10.37;;;14.30;99.90;;;;;;5030950;28;20199;-77
2021/12/27 08:54:11;;;;;;;5.50;3.43;;;14.10;99.90;;;;;;5029216;28;20188;-76
2021/12/27 08:56:38;;;;;;;6.43;4.63;;;13.90;99.90;;;;;;5029089;28;20189;-77
2021/12/27 08:59:05;;;;;;;2.90;2.70;;;14.00;99.90;;;;;;5029331;28;20971;-76
2021/12/27 09:01:31;;;;;;;3.20;2.97;;;13.40;99.90;;;;;;5030366;28;20457;-76
2021/12/27 09:03:57;;;;;;;3.67;3.33;;;13.10;99.90;;;;;;5031132;28;20412;-77
2021/12/27 09:06:22;;;;;;;3.80;3.50;;;11.90;99.90;;;;;;5031024;28;20464;-77
2021/12/27 09:08:48;;;;;;;3.90;3.50;;;11.10;99.90;;;;;;5030295;28;20247;-76
2021/12/27 09:11:14;;;;;;;4.20;3.80;;;10.90;99.90;;;;;;5030648;28;20683;-76
2021/12/27 09:13:40;;;;;;;4.00;3.70;;;10.80;99.90;;;;;;5029397;28;20665;-77
2021/12/27 09:16:07;;;;;;;4.33;3.93;;;10.50;99.90;;;;;;5030109;28;20510;-77
2021/12/27 09:18:35;;;;;;;4.30;3.33;;;10.40;99.90;;;;;;5028928;28;20711;-77
2021/12/27 09:21:01;;;;;;;4.97;4.03;;;10.30;99.90;;;;;;5031712;28;20454;-77
2021/12/27 09:23:27;;;;;;;3.53;3.20;;;10.00;99.90;;;;;;5032504;28;20418;-77
2021/12/27 09:25:53;;;;;;;6.17;5.00;;;9.70;99.90;;;;;;5032556;28;21362;-77
2021/12/27 09:28:19;;;;;;;5.70;4.57;;;9.60;99.90;;;;;;5032366;28;20433;-77
2021/12/27 09:30:45;;;;;;;5.43;3.93;;;9.50;99.90;;;;;;5032660;28;20418;-76
2021/12/27 09:33:10;;;;;;;4.03;3.47;;;9.80;99.90;;;;;;5034445;28;20177;-76
2021/12/27 09:35:37;;;;;;;5.70;4.17;;;10.40;99.90;;;;;;5032295;28;20183;-77
2021/12/27 09:38:03;;;;;;;3.73;3.20;;;11.10;99.90;;;;;;5033699;28;20208;-77
2021/12/27 09:40:28;;;;;;;3.50;3.20;;;13.00;99.90;;;;;;5033557;28;20481;-78
2021/12/27 09:42:54;;;;;;;4.00;3.60;;;14.60;99.90;;;;;;5034345;28;20419;-76
2021/12/27 09:45:21;;;;;;;8.50;3.83;;;15.20;99.90;;;;;;5032741;28;20232;-76
2021/12/27 09:47:49;;;;;;;3.70;3.40;;;15.00;99.90;;;;;;5032260;28;20206;-76
2021/12/27 09:50:26;;;;;;;7.50;4.73;;;14.90;99.50;;;;;;5031825;28;20920;-76
2021/12/27 09:52:52;;;;;;;4.50;4.10;;;15.00;99.90;;;;;;5031157;28;20423;-76
2021/12/27 09:55:18;;;;;;;3.70;3.20;;;14.70;99.90;;;;;;5031993;28;20490;-76
2021/12/27 09:57:44;;;;;;;3.80;3.50;;;14.10;99.90;;;;;;5030670;28;20970;-76
2021/12/27 10:00:11;;;;;;;4.97;4.47;;;14.10;99.90;;;;;;5031156;28;20438;-76
2021/12/27 10:02:39;;;;;;;4.50;4.10;;;13.50;99.90;;;;;;5030060;28;20464;-75
2021/12/27 10:05:05;;;;;;;3.87;3.53;;;13.80;99.90;;;;;;5032249;28;20427;-77
2021/12/27 10:07:31;;;;;;;4.13;3.07;;;15.70;99.90;;;;;;5032845;28;20528;-76
2021/12/27 10:09:59;;;;;;;3.60;3.30;;;17.30;97.60;;;;;;5034074;28;20500;-77
2021/12/27 10:12:26;;;;;;;4.67;3.73;;;18.20;93.50;;;;;;5031475;28;20241;-77
2021/12/27 10:14:59;;;;;;;5.73;3.83;;;18.30;91.00;;;;;;5028710;28;20426;-77
2021/12/27 10:17:25;;;;;;;5.20;4.03;;;17.90;91.40;;;;;;5028706;28;20423;-77
2021/12/27 10:19:53;;;;;;;5.20;4.47;;;18.80;91.40;;;;;;5031864;28;20427;-76
2021/12/27 10:22:20;;;;;;;4.30;3.90;;;18.90;91.00;;;;;;5034294;28;20459;-77
2021/12/27 10:24:48;;;;;;;3.77;3.37;;;20.10;89.80;;;;;;5034109;28;20910;-77
2021/12/27 10:27:14;;;;;;;4.00;3.70;;;20.00;81.40;;;;;;5016249;28;20524;-76
2021/12/27 10:29:40;;;;;;;4.73;4.20;;;20.10;85.40;;;;;;5033879;28;20502;-77
2021/12/27 10:32:14;;;;;;;5.60;5.10;;;20.60;80.60;;;;;;5034399;28;20185;-77
2021/12/27 10:34:45;;;;;;;4.60;4.20;;;21.20;80.20;;;;;;5032246;28;20511;-77
2021/12/27 10:37:19;;;;;;;4.77;4.37;;;21.20;79.60;;;;;;5032313;28;20465;-76
2021/12/27 10:39:58;;;;;;;4.23;3.93;;;21.90;76.60;;;;;;5032842;28;20425;-75
2021/12/27 10:42:45;;;;;;;4.83;4.43;;;21.60;75.00;;;;;;5032854;28;21009;-77
2021/12/27 10:45:19;;;;;;;113.90;78.77;;;21.60;74.10;;;;;;5033564;28;20779;-76
2021/12/27 10:47:49;;;;;;;5.17;4.67;;;21.90;72.30;;;;;;5031374;28;20541;-76
2021/12/27 10:50:23;;;;;;;4.90;4.33;;;22.00;70.70;;;;;;5032429;28;20427;-76
2021/12/27 10:53:06;;;;;;;6.53;6.03;;;22.00;70.50;;;;;;5034768;28;20424;-77
2021/12/27 10:55:32;;;;;;;4.77;4.33;;;22.00;71.80;;;;;;5033039;28;20438;-77
2021/12/27 10:58:18;;;;;;;5.37;4.87;;;21.80;70.30;;;;;;5033560;28;20449;-78
2021/12/27 11:00:54;;;;;;;4.53;4.17;;;21.60;73.20;;;;;;5033518;28;20198;-76
2021/12/27 11:03:43;;;;;;;4.00;3.70;;;20.80;71.00;;;;;;5033541;28;20456;-78
2021/12/27 11:06:11;;;;;;;4.33;3.90;;;21.60;70.30;;;;;;5033524;28;20430;-77
2021/12/27 11:08:41;;;;;;;5.30;4.70;;;21.90;70.40;;;;;;5033886;28;20447;-77
2021/12/27 11:11:07;;;;;;;4.40;4.10;;;21.80;70.80;;;;;;5032438;28;20451;-77
2021/12/27 11:13:34;;;;;;;5.20;4.70;;;22.80;68.10;;;;;;5033510;28;21270;-77
2021/12/27 11:16:00;;;;;;;5.50;4.63;;;21.20;70.90;;;;;;5033350;28;20643;-77
2021/12/27 11:18:26;;;;;;;4.47;4.00;;;20.50;70.60;;;;;;5033314;28;20441;-77
2021/12/27 11:20:59;;;;;;;4.10;3.70;;;19.30;75.80;;;;;;5033261;28;20505;-77
2021/12/27 11:23:26;;;;;;;4.43;4.03;;;18.70;78.40;;;;;;5032877;28;20423;-77
2021/12/27 11:26:06;;;;;;;6.50;4.20;;;18.10;82.60;;;;;;5030606;28;20842;-76
2021/12/27 11:28:36;;;;;;;8.23;4.73;;;18.20;84.80;;;;;;5032478;28;20953;-78
2021/12/27 11:31:14;;;;;;;4.80;4.30;;;16.90;87.70;;;;;;5035550;28;20506;-78
2021/12/27 11:34:02;;;;;;;5.20;4.53;;;14.80;94.60;;;;;;5032839;28;20449;-77
2021/12/27 11:36:34;;;;;;;4.30;3.90;;;13.00;99.90;;;;;;5031689;28;20434;-77
2021/12/27 11:39:26;;;;;;;4.43;3.87;;;12.40;99.90;;;;;;5031359;28;20441;-76
2021/12/27 11:42:10;;;;;;;7.23;4.40;;;12.20;99.90;;;;;;5029754;28;20480;-76
2021/12/27 11:44:51;;;;;;;5.87;4.20;;;12.40;99.90;;;;;;5030876;28;20419;-75
2021/12/27 11:47:34;;;;;;;4.33;3.93;;;12.30;99.90;;;;;;5031429;28;20456;-77
2021/12/27 11:50:02;;;;;;;5.13;4.20;;;12.10;99.90;;;;;;5030374;28;20427;-76
2021/12/27 11:52:31;;;;;;;4.20;3.60;;;11.90;99.90;;;;;;5030610;28;20438;-76
2021/12/27 11:55:07;;;;;;;3.67;3.27;;;11.50;99.90;;;;;;5030359;28;20427;-76
2021/12/27 11:57:45;;;;;;;3.80;3.50;;;11.30;99.90;;;;;;5028884;28;20442;-77
2021/12/27 12:00:17;;;;;;;3.57;3.03;;;10.50;99.90;;;;;;5028903;28;20421;-76
2021/12/27 12:02:49;;;;;;;5.73;3.63;;;10.10;99.90;;;;;;5030373;28;20476;-78
2021/12/27 12:05:36;;;;;;;4.50;3.60;;;10.10;99.90;;;;;;5030050;28;20431;-76
2021/12/27 12:08:03;;;;;;;4.17;3.63;;;9.80;99.90;;;;;;5030754;28;20430;-76
2021/12/27 12:10:31;;;;;;;5.90;4.80;;;9.60;99.90;;;;;;5031628;28;20427;-76
2021/12/27 12:13:29;;;;;;;4.87;3.50;;;9.50;99.90;;;;;;5030810;28;20426;-78
2021/12/27 12:16:10;;;;;;;2.87;2.67;;;9.60;99.90;;;;;;5029584;28;20414;-76
2021/12/27 12:18:59;;;;;;;5.13;4.03;;;9.50;99.90;;;;;;5030499;28;20444;-78
2021/12/27 12:21:33;;;;;;;6.07;4.30;;;9.80;99.90;;;;;;5026841;28;20526;-78
2021/12/27 12:24:05;;;;;;;5.03;4.00;;;9.90;99.90;;;;;;5032973;28;20412;-78
2021/12/27 12:26:57;;;;;;;5.07;3.43;;;9.90;99.90;;;;;;5032175;28;20426;-77
2021/12/27 12:29:24;;;;;;;3.13;2.93;;;10.00;99.90;;;;;;5030050;28;20437;-76
2021/12/27 12:32:03;;;;;;;2.80;2.60;;;10.10;99.90;;;;;;5030621;28;20854;-76
2021/12/27 12:34:28;;;;;;;2.97;2.57;;;10.10;99.90;;;;;;5030426;28;20415;-77
2021/12/27 12:36:57;;;;;;;7.53;3.23;;;10.10;99.90;;;;;;5029157;28;20449;-77
2021/12/27 12:39:25;;;;;;;3.60;2.80;;;10.00;99.90;;;;;;5032748;28;20201;-77
2021/12/27 12:42:05;;;;;;;4.03;2.80;;;10.00;99.90;;;;;;5032027;28;20544;-77
2021/12/27 12:44:30;;;;;;;2.67;2.47;;;10.00;99.90;;;;;;5032699;28;20511;-77
2021/12/27 12:47:00;;;;;;;3.53;2.47;;;10.30;99.90;;;;;;5032287;28;20502;-77
2021/12/27 12:49:28;;;;;;;2.83;2.53;;;10.00;99.90;;;;;;5032595;28;20204;-77
2021/12/27 12:51:56;;;;;;;2.50;2.30;;;10.00;99.90;;;;;;5031780;28;20450;-77
2021/12/27 12:54:24;;;;;;;3.57;2.20;;;10.10;99.90;;;;;;5032703;28;20418;-77
2021/12/27 12:56:59;;;;;;;2.63;2.10;;;10.20;99.90;;;;;;5031691;28;20945;-77